createdAt,value
2022-08-01T00:01:59.044Z,71.92
2022-08-01T00:04:25.627Z,72.25
2022-08-01T00:06:52.093Z,72.22
2022-08-01T00:09:23.802Z,72.21
2022-08-01T00:11:56.337Z,72.24
2022-08-01T00:14:32.567Z,72.61
2022-08-01T00:17:03.900Z,71.87
2022-08-01T00:19:33.775Z,71.84
2022-08-01T00:22:00.235Z,71.69
2022-08-01T00:24:26.690Z,72.05
2022-08-01T00:26:53.103Z,71.66
2022-08-01T00:30:10.387Z,71.97
2022-08-01T00:32:06.476Z,72.47
2022-08-01T00:34:33.172Z,72.94
2022-08-01T00:36:59.587Z,72.27
2022-08-01T00:39:26.119Z,73.08
2022-08-01T00:41:59.784Z,72.54
2022-08-01T00:44:27.497Z,72.19
2022-08-01T00:46:54.039Z,71.89
2022-08-01T00:49:20.611Z,72.40
2022-08-01T00:51:47.262Z,73.05
2022-08-01T00:54:16.808Z,72.83
2022-08-01T00:56:43.889Z,72.83
2022-08-01T00:59:12.069Z,72.81
2022-08-01T01:01:40.960Z,72.77
2022-08-01T01:04:13.457Z,72.44
2022-08-01T01:07:07.360Z,72.17
2022-08-01T01:10:02.101Z,72.72
2022-08-01T01:12:38.631Z,72.17
2022-08-01T01:15:14.318Z,72.57
2022-08-01T01:18:08.110Z,72.17
2022-08-01T01:20:47.295Z,72.96
2022-08-01T01:23:32.224Z,72.67
2022-08-01T01:26:23.614Z,73.04
2022-08-01T01:28:59.106Z,72.97
2022-08-01T01:31:27.521Z,73.26
2022-08-01T01:33:56.226Z,73.14
2022-08-01T01:36:25.150Z,72.42
2022-08-01T01:38:52.323Z,72.85
2022-08-01T01:41:19.693Z,73.10
2022-08-01T01:43:47.682Z,72.88
2022-08-01T01:46:18.384Z,72.78
2022-08-01T01:48:46.423Z,72.80
2022-08-01T01:51:15.820Z,73.04
2022-08-01T01:53:44.091Z,72.37
2022-08-01T01:56:12.314Z,72.47
2022-08-01T01:58:40.187Z,72.36
2022-08-01T02:01:14.284Z,72.66
2022-08-01T02:03:43.522Z,72.46
2022-08-01T02:06:11.134Z,73.21
2022-08-01T02:08:39.027Z,73.01
2022-08-01T02:11:24.815Z,72.89
2022-08-01T02:13:56.563Z,73.36
2022-08-01T02:16:27.195Z,72.85
2022-08-01T02:18:54.449Z,72.98
2022-08-01T02:21:29.342Z,72.95
2022-08-01T02:24:02.740Z,73.06
2022-08-01T02:26:32.179Z,72.95
2022-08-01T02:29:03.577Z,72.88
2022-08-01T02:31:33.006Z,72.92
2022-08-01T02:34:06.913Z,73.18
2022-08-01T02:36:37.918Z,73.03
2022-08-01T02:39:09.394Z,73.36
2022-08-01T02:41:40.974Z,73.23
2022-08-01T02:44:10.456Z,72.99
2022-08-01T02:46:52.292Z,73.64
2022-08-01T02:49:21.996Z,73.68
2022-08-01T02:51:50.458Z,74.30
2022-08-01T02:54:19.421Z,74.41
2022-08-01T02:56:48.091Z,75.11
2022-08-01T02:59:19.785Z,74.91
2022-08-01T03:01:49.956Z,75.08
2022-08-01T03:04:18.883Z,75.51
2022-08-01T03:06:45.951Z,75.41
2022-08-01T03:09:13.024Z,75.40
2022-08-01T03:11:42.553Z,75.80
2022-08-01T03:14:11.039Z,75.16
2022-08-01T03:16:40.785Z,75.37
2022-08-01T03:19:10.696Z,75.74
2022-08-01T03:21:39.834Z,75.44
2022-08-01T03:24:08.788Z,75.41
2022-08-01T03:26:39.087Z,75.70
2022-08-01T03:29:13.707Z,75.39
2022-08-01T03:31:44.398Z,75.86
2022-08-01T03:34:11.165Z,75.80
2022-08-01T03:37:03.669Z,75.94
2022-08-01T03:39:37.956Z,75.50
2022-08-01T03:42:15.017Z,75.50
2022-08-01T03:44:42.308Z,75.36
2022-08-01T03:47:10.215Z,75.68
2022-08-01T03:49:42.248Z,75.09
2022-08-01T03:52:10.276Z,75.09
2022-08-01T03:54:44.627Z,75.51
2022-08-01T03:57:36.803Z,75.47
2022-08-01T04:00:00.120Z,75.86
2022-08-01T04:02:28.220Z,75.72
2022-08-01T04:04:55.987Z,75.84
2022-08-01T04:07:27.985Z,76.32
2022-08-01T04:09:54.786Z,76.40
2022-08-01T04:12:21.855Z,76.01
2022-08-01T04:14:49.729Z,75.99
2022-08-01T04:17:17.214Z,76.18
2022-08-01T04:19:44.344Z,76.02
2022-08-01T04:22:14.027Z,76.20
2022-08-01T04:24:42.701Z,75.93
2022-08-01T04:27:14.112Z,76.28
2022-08-01T04:29:43.197Z,76.20
2022-08-01T04:32:14.020Z,76.39
2022-08-01T04:34:42.689Z,75.95
2022-08-01T04:37:11.121Z,75.98
2022-08-01T04:39:50.461Z,76.17
2022-08-01T04:42:18.800Z,76.28
2022-08-01T04:44:52.601Z,76.35
2022-08-01T04:47:19.942Z,76.34
2022-08-01T04:49:48.885Z,76.44
2022-08-01T04:52:19.728Z,76.32
2022-08-01T04:54:48.240Z,75.96
2022-08-01T04:57:15.720Z,76.11
2022-08-01T04:59:44.655Z,76.10
2022-08-01T05:02:11.021Z,76.32
2022-08-01T05:04:38.834Z,76.27
2022-08-01T05:07:05.678Z,76.67
2022-08-01T05:09:32.558Z,76.68
2022-08-01T05:12:01.842Z,76.69
2022-08-01T05:14:29.355Z,76.67
2022-08-01T05:16:55.744Z,76.73
2022-08-01T05:19:25.146Z,76.79
2022-08-01T05:21:51.843Z,76.77
2022-08-01T05:24:18.242Z,76.79
2022-08-01T05:26:44.732Z,76.82
2022-08-01T05:29:11.168Z,76.53
2022-08-01T05:31:37.588Z,76.41
2022-08-01T05:34:04.137Z,76.05
2022-08-01T05:36:30.621Z,76.44
2022-08-01T05:38:57.053Z,76.20
2022-08-01T05:41:23.503Z,76.21
2022-08-01T05:43:49.906Z,76.31
2022-08-01T05:46:16.485Z,76.14
2022-08-01T05:48:42.886Z,75.64
2022-08-01T05:51:09.402Z,75.82
2022-08-01T05:53:35.823Z,75.58
2022-08-01T05:56:02.931Z,75.05
2022-08-01T05:58:29.415Z,75.08
2022-08-01T06:00:55.862Z,75.17
2022-08-01T06:03:22.367Z,74.82
2022-08-01T06:05:48.776Z,74.59
2022-08-01T06:08:15.219Z,74.55
2022-08-01T06:10:41.640Z,75.29
2022-08-01T06:13:08.068Z,75.00
2022-08-01T06:15:34.637Z,74.69
2022-08-01T06:18:01.412Z,74.46
2022-08-01T06:20:27.982Z,74.43
2022-08-01T06:22:55.440Z,74.33
2022-08-01T06:25:22.937Z,74.25
2022-08-01T06:27:50.472Z,73.85
2022-08-01T06:30:16.943Z,73.90
2022-08-01T06:32:43.359Z,73.88
2022-08-01T06:35:09.834Z,73.53
2022-08-01T06:37:36.281Z,73.57
2022-08-01T06:40:03.928Z,73.30
2022-08-01T06:42:32.589Z,73.21
2022-08-01T06:44:58.995Z,73.26
2022-08-01T06:47:25.513Z,72.55
2022-08-01T06:49:51.906Z,72.04
2022-08-01T06:52:18.282Z,71.63
2022-08-01T06:54:44.725Z,70.96
2022-08-01T06:57:11.256Z,70.55
2022-08-01T06:59:37.678Z,70.30
2022-08-01T07:02:04.433Z,69.47
2022-08-01T07:04:31.315Z,69.28
2022-08-01T07:06:58.168Z,69.12
2022-08-01T07:09:25.133Z,69.23
2022-08-01T07:11:53.291Z,69.14
2022-08-01T07:14:20.560Z,69.36
2022-08-01T07:16:47.046Z,69.08
2022-08-01T07:19:13.834Z,68.84
2022-08-01T07:21:41.410Z,68.88
2022-08-01T07:24:13.518Z,67.17
2022-08-01T07:26:53.248Z,67.23
2022-08-01T07:29:27.450Z,66.42
2022-08-01T07:31:56.463Z,66.83
2022-08-01T07:34:23.702Z,66.76
2022-08-01T07:36:50.936Z,67.07
2022-08-01T07:39:17.608Z,67.12
2022-08-01T07:42:05.538Z,67.03
2022-08-01T07:44:31.793Z,66.83
2022-08-01T07:46:58.387Z,67.01
2022-08-01T07:49:24.858Z,66.91
2022-08-01T07:52:03.355Z,67.29
2022-08-01T07:54:33.825Z,66.87
2022-08-01T07:57:00.979Z,66.51
2022-08-01T07:59:27.422Z,67.32
2022-08-01T08:01:53.978Z,66.82
2022-08-01T08:04:20.512Z,66.31
2022-08-01T08:06:48.535Z,65.77
2022-08-01T08:09:16.088Z,65.40
2022-08-01T08:11:47.165Z,65.45
2022-08-01T08:14:14.458Z,64.57
2022-08-01T08:16:40.974Z,64.38
2022-08-01T08:19:07.414Z,64.66
2022-08-01T08:21:33.934Z,64.09
2022-08-01T08:24:19.370Z,64.73
2022-08-01T08:26:46.622Z,65.55
2022-08-01T08:29:18.583Z,65.28
2022-08-01T08:31:51.709Z,65.38
2022-08-01T08:34:19.625Z,65.37
2022-08-01T08:36:47.985Z,65.19
2022-08-01T08:39:15.100Z,65.13
2022-08-01T08:41:45.170Z,65.36
2022-08-01T08:44:17.052Z,64.19
2022-08-01T08:46:46.276Z,63.81
2022-08-01T08:49:17.534Z,64.48
2022-08-01T08:51:45.570Z,62.36
2022-08-01T08:54:14.244Z,62.62
2022-08-01T08:56:42.131Z,62.51
2022-08-01T08:59:08.862Z,62.25
2022-08-01T09:01:36.165Z,60.67
2022-08-01T09:04:05.656Z,60.51
2022-08-01T09:06:33.556Z,59.87
2022-08-01T09:09:01.650Z,59.30
2022-08-01T09:11:28.191Z,59.31
2022-08-01T09:14:13.294Z,59.48
2022-08-01T09:16:48.521Z,58.77
2022-08-01T09:19:38.893Z,57.98
2022-08-01T09:22:10.790Z,58.05
2022-08-01T09:24:38.435Z,56.99
2022-08-01T09:27:22.275Z,57.58
2022-08-01T09:30:01.217Z,57.11
2022-08-01T09:32:35.310Z,55.63
2022-08-01T09:35:43.797Z,55.00
2022-08-01T09:38:23.771Z,55.30
2022-08-01T09:40:55.719Z,54.06
2022-08-01T09:43:27.853Z,52.84
2022-08-01T09:45:55.553Z,53.25
2022-08-01T09:48:28.456Z,53.22
2022-08-01T09:51:04.241Z,53.23
2022-08-01T09:53:51.147Z,52.79
2022-08-01T09:56:18.779Z,51.21
2022-08-01T09:59:00.990Z,49.22
2022-08-01T10:01:36.556Z,49.98
2022-08-01T10:04:11.712Z,49.69
2022-08-01T10:06:41.843Z,51.23
2022-08-01T10:09:08.773Z,51.73
2022-08-01T10:11:39.960Z,51.47
2022-08-01T10:14:07.389Z,52.34
2022-08-01T10:16:36.786Z,52.70
2022-08-01T10:19:14.506Z,51.79
2022-08-01T10:21:58.001Z,51.04
2022-08-01T10:24:28.162Z,50.90
2022-08-01T10:27:09.100Z,50.78
2022-08-01T10:30:05.552Z,51.95
2022-08-01T10:32:35.927Z,51.26
2022-08-01T10:35:06.876Z,51.54
2022-08-01T10:37:35.745Z,51.38
2022-08-01T10:40:30.779Z,50.53
2022-08-01T10:42:57.905Z,50.14
2022-08-01T10:45:26.609Z,48.03
2022-08-01T10:48:20.939Z,46.20
2022-08-01T10:50:50.568Z,47.70
2022-08-01T10:53:23.885Z,47.21
2022-08-01T10:55:59.373Z,46.67
2022-08-01T10:58:30.007Z,47.24
2022-08-01T11:01:15.768Z,46.74
2022-08-01T11:03:56.831Z,45.30
2022-08-01T11:06:29.191Z,44.66
2022-08-01T11:09:01.461Z,44.32
2022-08-01T11:11:30.173Z,44.78
2022-08-01T11:14:12.584Z,44.38
2022-08-01T11:16:43.374Z,44.14
2022-08-01T11:19:09.883Z,45.06
2022-08-01T11:21:58.898Z,44.77
2022-08-01T11:24:49.819Z,43.64
2022-08-01T11:27:17.472Z,43.07
2022-08-01T11:30:12.978Z,42.58
2022-08-01T11:33:10.399Z,41.70
2022-08-01T11:35:38.461Z,41.99
2022-08-01T11:38:25.646Z,41.61
2022-08-01T11:41:14.140Z,41.69
2022-08-01T11:44:02.232Z,42.74
2022-08-01T11:46:56.652Z,42.83
2022-08-01T11:49:38.788Z,41.49
2022-08-01T11:52:08.633Z,40.88
2022-08-01T11:54:49.164Z,41.61
2022-08-01T11:57:33.941Z,41.80
2022-08-01T12:00:04.821Z,41.99
2022-08-01T12:02:35.783Z,41.69
2022-08-01T12:05:04.881Z,41.66
2022-08-01T12:07:33.417Z,41.25
2022-08-01T12:10:03.493Z,41.24
2022-08-01T12:12:31.051Z,39.89
2022-08-01T12:15:09.879Z,39.83
2022-08-01T12:17:39.311Z,39.73
2022-08-01T12:20:08.836Z,40.15
2022-08-01T12:22:35.723Z,40.28
2022-08-01T12:25:13.982Z,40.13
2022-08-01T12:27:42.914Z,39.38
2022-08-01T12:30:26.168Z,39.39
2022-08-01T12:32:54.493Z,38.72
2022-08-01T12:35:29.733Z,38.19
2022-08-01T12:38:07.348Z,35.51
2022-08-01T12:40:36.254Z,35.77
2022-08-01T12:43:05.661Z,36.18
2022-08-01T12:45:36.360Z,36.37
2022-08-01T12:48:12.463Z,36.72
2022-08-01T12:50:41.835Z,36.66
2022-08-01T12:53:10.532Z,36.73
2022-08-01T12:55:59.243Z,37.19
2022-08-01T12:58:32.442Z,37.20
2022-08-01T13:01:06.849Z,37.30
2022-08-01T13:03:33.600Z,37.53
2022-08-01T13:06:01.099Z,36.89
2022-08-01T13:08:32.651Z,36.78
2022-08-01T13:11:17.406Z,37.95
2022-08-01T13:13:49.496Z,38.78
2022-08-01T13:16:30.671Z,38.49
2022-08-01T13:19:05.677Z,39.02
2022-08-01T13:21:53.194Z,40.13
2022-08-01T13:24:24.415Z,40.23
2022-08-01T13:26:54.274Z,41.00
2022-08-01T13:29:42.021Z,40.66
2022-08-01T13:32:29.008Z,42.61
2022-08-01T13:35:08.775Z,41.66
2022-08-01T13:37:38.624Z,41.76
2022-08-01T13:40:07.088Z,42.81
2022-08-01T13:42:33.773Z,43.69
2022-08-01T13:45:00.184Z,45.04
2022-08-01T13:47:31.607Z,44.96
2022-08-01T13:50:01.595Z,45.41
2022-08-01T13:52:28.614Z,45.61
2022-08-01T13:54:57.332Z,45.34
2022-08-01T13:57:23.813Z,45.16
2022-08-01T13:59:50.313Z,44.81
2022-08-01T14:02:16.845Z,45.03
2022-08-01T14:04:43.389Z,45.29
2022-08-01T14:07:14.671Z,45.63
2022-08-01T14:09:57.600Z,45.33
2022-08-01T14:12:28.375Z,44.94
2022-08-01T14:14:54.860Z,45.07
2022-08-01T14:17:21.550Z,44.94
2022-08-01T14:19:48.382Z,44.88
2022-08-01T14:22:14.783Z,44.98
2022-08-01T14:24:41.164Z,44.41
2022-08-01T14:27:08.181Z,44.43
2022-08-01T14:30:00.287Z,44.82
2022-08-01T14:32:21.278Z,45.36
2022-08-01T14:34:52.398Z,45.29
2022-08-01T14:37:18.826Z,45.58
2022-08-01T14:39:53.464Z,44.67
2022-08-01T14:42:21.307Z,44.32
2022-08-01T14:44:49.946Z,43.40
2022-08-01T14:47:22.324Z,43.18
2022-08-01T14:49:49.911Z,43.34
2022-08-01T14:52:16.518Z,42.82
2022-08-01T14:54:43.130Z,42.06
2022-08-01T14:57:10.099Z,41.54
2022-08-01T14:59:36.870Z,41.92
2022-08-01T15:02:04.141Z,42.30
2022-08-01T15:04:31.395Z,42.45
2022-08-01T15:06:57.962Z,42.27
2022-08-01T15:09:25.269Z,41.15
2022-08-01T15:11:51.704Z,41.67
2022-08-01T15:14:36.929Z,42.09
2022-08-01T15:17:03.714Z,42.90
2022-08-01T15:19:30.237Z,42.78
2022-08-01T15:21:56.700Z,43.18
2022-08-01T15:24:23.175Z,42.36
2022-08-01T15:26:51.628Z,42.26
2022-08-01T15:29:18.084Z,43.66
2022-08-01T15:31:44.590Z,43.62
2022-08-01T15:34:11.788Z,43.14
2022-08-01T15:36:41.871Z,42.51
2022-08-01T15:39:11.219Z,42.57
2022-08-01T15:41:38.191Z,42.97
2022-08-01T15:44:04.721Z,41.76
2022-08-01T15:46:31.296Z,41.23
2022-08-01T15:48:57.742Z,40.38
2022-08-01T15:51:24.314Z,41.20
2022-08-01T15:53:50.720Z,42.31
2022-08-01T15:56:17.211Z,41.15
2022-08-01T15:58:43.591Z,40.26
2022-08-01T16:01:10.003Z,41.08
2022-08-01T16:03:36.384Z,41.25
2022-08-01T16:06:02.858Z,40.93
2022-08-01T16:08:29.385Z,40.66
2022-08-01T16:10:55.781Z,41.71
2022-08-01T16:13:22.259Z,40.50
2022-08-01T16:15:48.654Z,39.93
2022-08-01T16:18:16.057Z,40.07
2022-08-01T16:20:45.931Z,40.48
2022-08-01T16:23:16.238Z,39.34
2022-08-01T16:25:44.448Z,37.93
2022-08-01T16:28:11.276Z,37.47
2022-08-01T16:30:48.654Z,37.09
2022-08-01T16:33:50.208Z,36.98
2022-08-01T16:36:09.288Z,36.72
2022-08-01T16:38:43.894Z,36.60
2022-08-01T16:41:19.771Z,36.40
2022-08-01T16:43:51.221Z,35.67
2022-08-01T16:46:22.297Z,36.03
2022-08-01T16:48:48.748Z,36.14
2022-08-01T16:51:15.483Z,35.52
2022-08-01T16:53:41.918Z,36.21
2022-08-01T16:56:08.388Z,36.90
2022-08-01T16:58:34.825Z,36.90
2022-08-01T17:01:56.322Z,37.79
2022-08-01T17:03:52.487Z,37.59
2022-08-01T17:06:20.582Z,37.71
2022-08-01T17:08:49.875Z,37.94
2022-08-01T17:11:16.578Z,38.47
2022-08-01T17:13:43.338Z,39.03
2022-08-01T17:16:09.812Z,38.46
2022-08-01T17:18:36.423Z,38.35
2022-08-01T17:21:02.901Z,38.29
2022-08-01T17:23:31.615Z,38.94
2022-08-01T17:25:58.429Z,39.11
2022-08-01T17:28:26.053Z,38.70
2022-08-01T17:30:52.509Z,39.07
2022-08-01T17:33:19.039Z,38.76
2022-08-01T17:35:45.487Z,37.93
2022-08-01T17:38:11.913Z,39.07
2022-08-01T17:40:40.441Z,39.04
2022-08-01T17:43:07.535Z,39.60
2022-08-01T17:45:39.497Z,39.54
2022-08-01T17:48:18.504Z,39.93
2022-08-01T17:50:46.979Z,40.21
2022-08-01T17:53:21.036Z,39.89
2022-08-01T17:55:56.683Z,40.09
2022-08-01T17:58:49.662Z,40.25
2022-08-01T18:01:13.775Z,39.82
2022-08-01T18:03:41.222Z,39.25
2022-08-01T18:06:08.813Z,39.09
2022-08-01T18:08:35.547Z,39.23
2022-08-01T18:11:02.075Z,39.74
2022-08-01T18:13:30.007Z,39.70
2022-08-01T18:15:57.028Z,40.63
2022-08-01T18:18:32.712Z,39.88
2022-08-01T18:21:03.391Z,39.75
2022-08-01T18:23:29.889Z,40.26
2022-08-01T18:25:56.396Z,39.98
2022-08-01T18:28:31.492Z,40.20
2022-08-01T18:31:00.885Z,40.27
2022-08-01T18:33:27.623Z,39.81
2022-08-01T18:35:55.507Z,39.62
2022-08-01T18:38:27.720Z,40.36
2022-08-01T18:40:54.217Z,40.14
2022-08-01T18:43:20.677Z,40.06
2022-08-01T18:45:47.103Z,40.36
2022-08-01T18:48:13.706Z,40.74
2022-08-01T18:50:40.148Z,41.62
2022-08-01T18:53:06.722Z,41.20
2022-08-01T18:55:33.324Z,40.99
2022-08-01T18:57:59.822Z,41.58
2022-08-01T19:00:26.229Z,41.04
2022-08-01T19:02:53.117Z,41.38
2022-08-01T19:05:19.717Z,41.25
2022-08-01T19:08:05.955Z,41.38
2022-08-01T19:10:33.391Z,41.62
2022-08-01T19:13:00.892Z,42.00
2022-08-01T19:15:27.346Z,42.42
2022-08-01T19:17:53.774Z,42.44
2022-08-01T19:20:20.171Z,42.28
2022-08-01T19:22:46.594Z,42.77
2022-08-01T19:25:14.905Z,42.97
2022-08-01T19:27:46.865Z,43.79
2022-08-01T19:30:14.979Z,43.16
2022-08-01T19:32:46.566Z,43.25
2022-08-01T19:35:15.047Z,43.51
2022-08-01T19:37:52.572Z,43.38
2022-08-01T19:40:26.948Z,43.29
2022-08-01T19:42:55.829Z,43.52
2022-08-01T19:45:22.582Z,43.80
2022-08-01T19:47:56.058Z,44.13
2022-08-01T19:50:25.696Z,43.99
2022-08-01T19:52:54.862Z,44.25
2022-08-01T19:55:23.920Z,44.45
2022-08-01T20:00:39.975Z,44.89
2022-08-01T20:03:07.519Z,44.65
2022-08-01T20:05:36.257Z,45.18
2022-08-01T20:08:03.323Z,45.08
2022-08-01T20:10:32.250Z,45.34
2022-08-01T20:12:58.812Z,45.39
2022-08-01T20:15:25.605Z,45.66
2022-08-01T20:17:52.100Z,45.92
2022-08-01T20:20:20.469Z,46.46
2022-08-01T20:22:49.496Z,46.28
2022-08-01T20:25:20.257Z,46.10
2022-08-01T20:27:47.743Z,46.20
2022-08-01T20:30:19.290Z,46.71
2022-08-01T20:32:46.041Z,46.89
2022-08-01T20:35:12.573Z,46.84
2022-08-01T20:38:03.285Z,47.08
2022-08-01T20:40:30.270Z,47.29
2022-08-01T20:42:57.926Z,47.35
2022-08-01T20:45:26.085Z,47.90
2022-08-01T20:47:53.941Z,48.31
2022-08-01T20:50:54.102Z,48.23
2022-08-01T20:53:24.310Z,48.50
2022-08-01T20:56:15.595Z,48.30
2022-08-01T20:59:06.484Z,48.20
2022-08-01T21:01:40.534Z,48.62
2022-08-01T21:04:13.038Z,48.54
2022-08-01T21:06:49.509Z,49.17
2022-08-01T21:09:21.888Z,48.92
2022-08-01T21:12:01.882Z,48.87
2022-08-01T21:14:45.270Z,49.07
2022-08-01T21:17:18.630Z,49.14
2022-08-01T21:19:47.212Z,49.10
2022-08-01T21:22:26.982Z,49.33
2022-08-01T21:24:59.097Z,49.43
2022-08-01T21:27:33.369Z,50.33
2022-08-01T21:30:02.804Z,50.19
2022-08-01T21:32:33.257Z,50.14
2022-08-01T21:35:01.006Z,50.26
2022-08-01T21:37:29.466Z,50.40
2022-08-01T21:39:57.817Z,50.86
2022-08-01T21:42:26.752Z,50.35
2022-08-01T21:44:55.660Z,50.36
2022-08-01T21:47:23.190Z,50.91
2022-08-01T21:49:49.726Z,50.60
2022-08-01T21:52:22.374Z,51.07
2022-08-01T21:55:15.694Z,51.20
2022-08-01T21:57:51.474Z,51.10
2022-08-01T22:00:25.938Z,51.28
2022-08-01T22:03:10.691Z,51.28
2022-08-01T22:05:50.652Z,51.27
2022-08-01T22:08:39.737Z,52.23
2022-08-01T22:11:08.316Z,51.54
2022-08-01T22:13:35.542Z,51.69
2022-08-01T22:16:04.229Z,51.37
2022-08-01T22:18:33.113Z,52.05
2022-08-01T22:21:02.050Z,52.03
2022-08-01T22:23:28.792Z,52.75
2022-08-01T22:25:56.080Z,53.09
2022-08-01T22:28:23.775Z,53.19
2022-08-01T22:30:51.716Z,53.50
2022-08-01T22:33:20.128Z,53.21
2022-08-01T22:35:49.327Z,53.42
2022-08-01T22:38:21.111Z,53.51
2022-08-01T22:41:01.189Z,53.11
2022-08-01T22:43:38.398Z,53.19
2022-08-01T22:46:14.647Z,53.38
2022-08-01T22:49:01.820Z,53.52
2022-08-01T22:51:40.276Z,53.43
2022-08-01T22:54:11.335Z,53.77
2022-08-01T22:56:42.011Z,53.35
2022-08-01T22:59:14.794Z,53.68
2022-08-01T23:01:48.948Z,53.84
2022-08-01T23:04:29.783Z,54.38
2022-08-01T23:07:03.886Z,54.65
2022-08-01T23:09:39.262Z,54.32
2022-08-01T23:12:22.954Z,55.02
2022-08-01T23:14:52.948Z,55.15
2022-08-01T23:17:26.879Z,55.27
2022-08-01T23:19:57.272Z,55.41
2022-08-01T23:22:27.743Z,55.04
2022-08-01T23:25:05.406Z,55.09
2022-08-01T23:27:51.255Z,54.96
2022-08-01T23:30:26.769Z,54.75
2022-08-01T23:32:53.696Z,55.27
2022-08-01T23:35:20.302Z,54.86
2022-08-01T23:37:46.886Z,54.78
2022-08-01T23:40:13.508Z,54.34
2022-08-01T23:42:40.032Z,54.56
2022-08-01T23:45:07.014Z,54.74
2022-08-01T23:47:33.540Z,55.03
2022-08-01T23:50:00.024Z,54.66
2022-08-01T23:52:32.307Z,54.73
2022-08-01T23:54:59.450Z,54.66
2022-08-01T23:57:28.627Z,55.19
2022-08-01T23:59:55.057Z,54.85
